sensor_id;sensor_type;location;lat;lon;timestamp;pressure;altitude;pressure_sealevel;temperature;humidity
77235;BME280;66253;50.526;14.974;2023-05-10T00:02:34;98866.67;;;11.32;49.12
77235;BME280;66253;50.526;14.974;2023-05-10T00:05:43;98864.08;;;11.30;49.20
77235;BME280;66253;50.526;14.974;2023-05-10T00:08:52;98858.55;;;11.28;49.36
77235;BME280;66253;50.526;14.974;2023-05-10T00:12:01;98857.91;;;11.27;49.71
77235;BME280;66253;50.526;14.974;2023-05-10T00:15:10;98855.96;;;11.25;49.40
77235;BME280;66253;50.526;14.974;2023-05-10T00:18:19;98848.61;;;11.23;49.68
77235;BME280;66253;50.526;14.974;2023-05-10T00:21:28;98851.86;;;11.20;49.66
77235;BME280;66253;50.526;14.974;2023-05-10T00:24:36;98849.45;;;11.18;49.65
77235;BME280;66253;50.526;14.974;2023-05-10T00:27:44;98848.21;;;11.16;50.16
77235;BME280;66253;50.526;14.974;2023-05-10T00:30:45;98849.52;;;11.14;50.22
77235;BME280;66253;50.526;14.974;2023-05-10T00:41:10;98836.83;;;11.07;50.29
77235;BME280;66253;50.526;14.974;2023-05-10T00:44:19;98836.96;;;11.04;50.15
77235;BME280;66253;50.526;14.974;2023-05-10T00:47:28;98830.05;;;11.03;50.48
77235;BME280;66253;50.526;14.974;2023-05-10T00:50:37;98827.80;;;11.01;50.20
77235;BME280;66253;50.526;14.974;2023-05-10T00:53:47;98829.12;;;10.99;50.66
77235;BME280;66253;50.526;14.974;2023-05-10T00:56:56;98827.14;;;10.98;50.58
77235;BME280;66253;50.526;14.974;2023-05-10T01:00:07;98820.58;;;10.96;50.83
77235;BME280;66253;50.526;14.974;2023-05-10T01:03:09;98817.96;;;10.94;50.69
77235;BME280;66253;50.526;14.974;2023-05-10T01:06:18;98815.32;;;10.93;50.82
77235;BME280;66253;50.526;14.974;2023-05-10T01:09:27;98815.39;;;10.92;51.17
77235;BME280;66253;50.526;14.974;2023-05-10T01:12:39;98817.55;;;10.90;50.77
77235;BME280;66253;50.526;14.974;2023-05-10T01:15:42;98813.83;;;10.90;51.01
77235;BME280;66253;50.526;14.974;2023-05-10T01:18:42;98814.36;;;10.90;50.99
77235;BME280;66253;50.526;14.974;2023-05-10T01:21:58;98819.03;;;10.89;51.17
77235;BME280;66253;50.526;14.974;2023-05-10T01:25:36;98814.73;;;10.87;50.94
77235;BME280;66253;50.526;14.974;2023-05-10T01:29:05;98808.71;;;10.85;51.19
77235;BME280;66253;50.526;14.974;2023-05-10T01:32:23;98808.20;;;10.81;51.47
77235;BME280;66253;50.526;14.974;2023-05-10T01:35:39;98801.61;;;10.80;51.15
77235;BME280;66253;50.526;14.974;2023-05-10T01:38:44;98802.02;;;10.79;51.30
77235;BME280;66253;50.526;14.974;2023-05-10T01:42:04;98807.38;;;10.78;51.66
77235;BME280;66253;50.526;14.974;2023-05-10T01:45:23;98805.14;;;10.75;51.87
77235;BME280;66253;50.526;14.974;2023-05-10T01:48:33;98807.00;;;10.74;51.68
77235;BME280;66253;50.526;14.974;2023-05-10T01:51:44;98807.58;;;10.73;51.41
77235;BME280;66253;50.526;14.974;2023-05-10T01:55:04;98806.33;;;10.71;51.78
77235;BME280;66253;50.526;14.974;2023-05-10T01:58:07;98806.10;;;10.69;51.71
77235;BME280;66253;50.526;14.974;2023-05-10T02:01:18;98805.20;;;10.67;51.96
77235;BME280;66253;50.526;14.974;2023-05-10T02:04:29;98803.21;;;10.66;52.19
77235;BME280;66253;50.526;14.974;2023-05-10T02:07:39;98805.82;;;10.65;52.21
77235;BME280;66253;50.526;14.974;2023-05-10T02:10:43;98802.11;;;10.64;51.88
77235;BME280;66253;50.526;14.974;2023-05-10T02:13:55;98797.58;;;10.63;52.15
77235;BME280;66253;50.526;14.974;2023-05-10T02:16:57;98794.17;;;10.63;52.05
77235;BME280;66253;50.526;14.974;2023-05-10T02:20:06;98792.34;;;10.62;52.17
77235;BME280;66253;50.526;14.974;2023-05-10T02:23:15;98790.42;;;10.60;52.29
77235;BME280;66253;50.526;14.974;2023-05-10T02:26:27;98789.83;;;10.58;52.49
77235;BME280;66253;50.526;14.974;2023-05-10T02:29:37;98793.58;;;10.56;52.38
77235;BME280;66253;50.526;14.974;2023-05-10T02:32:37;98791.98;;;10.54;52.79
77235;BME280;66253;50.526;14.974;2023-05-10T02:35:47;98793.52;;;10.51;52.75
77235;BME280;66253;50.526;14.974;2023-05-10T02:38:39;98788.80;;;10.50;52.67
77235;BME280;66253;50.526;14.974;2023-05-10T02:41:42;98789.86;;;10.50;52.90
77235;BME280;66253;50.526;14.974;2023-05-10T02:44:53;98786.27;;;10.47;52.67
77235;BME280;66253;50.526;14.974;2023-05-10T02:47:56;98785.86;;;10.45;52.81
77235;BME280;66253;50.526;14.974;2023-05-10T02:51:03;98791.44;;;10.44;52.78
77235;BME280;66253;50.526;14.974;2023-05-10T02:54:15;98789.14;;;10.42;52.46
77235;BME280;66253;50.526;14.974;2023-05-10T02:57:29;98789.67;;;10.42;52.81
77235;BME280;66253;50.526;14.974;2023-05-10T03:00:40;98793.57;;;10.40;52.86
77235;BME280;66253;50.526;14.974;2023-05-10T03:03:49;98795.27;;;10.37;53.04
77235;BME280;66253;50.526;14.974;2023-05-10T03:06:58;98791.06;;;10.33;53.35
77235;BME280;66253;50.526;14.974;2023-05-10T03:10:07;98793.78;;;10.31;53.22
77235;BME280;66253;50.526;14.974;2023-05-10T03:13:16;98794.38;;;10.29;53.26
77235;BME280;66253;50.526;14.974;2023-05-10T03:16:35;98794.06;;;10.25;52.97
77235;BME280;66253;50.526;14.974;2023-05-10T03:19:51;98791.54;;;10.25;53.05
77235;BME280;66253;50.526;14.974;2023-05-10T03:23:07;98792.52;;;10.23;53.60
77235;BME280;66253;50.526;14.974;2023-05-10T03:26:23;98795.65;;;10.19;53.07
77235;BME280;66253;50.526;14.974;2023-05-10T03:29:32;98796.58;;;10.15;53.60
77235;BME280;66253;50.526;14.974;2023-05-10T03:32:41;98793.59;;;10.14;53.48
77235;BME280;66253;50.526;14.974;2023-05-10T03:35:49;98796.02;;;10.14;53.83
77235;BME280;66253;50.526;14.974;2023-05-10T03:38:57;98800.70;;;10.11;53.74
77235;BME280;66253;50.526;14.974;2023-05-10T03:42:05;98801.13;;;10.10;54.02
77235;BME280;66253;50.526;14.974;2023-05-10T03:45:14;98803.48;;;10.08;54.20
77235;BME280;66253;50.526;14.974;2023-05-10T03:48:21;98801.27;;;10.05;54.16
77235;BME280;66253;50.526;14.974;2023-05-10T03:51:30;98800.44;;;10.05;54.37
77235;BME280;66253;50.526;14.974;2023-05-10T03:54:39;98798.67;;;10.03;54.41
77235;BME280;66253;50.526;14.974;2023-05-10T03:57:46;98794.91;;;10.03;54.54
77235;BME280;66253;50.526;14.974;2023-05-10T04:00:55;98793.27;;;10.02;54.50
77235;BME280;66253;50.526;14.974;2023-05-10T04:04:02;98794.98;;;10.02;54.39
77235;BME280;66253;50.526;14.974;2023-05-10T04:07:11;98789.69;;;10.02;54.51
77235;BME280;66253;50.526;14.974;2023-05-10T04:13:29;98787.39;;;10.06;54.78
77235;BME280;66253;50.526;14.974;2023-05-10T04:16:18;98784.77;;;10.10;54.69
77235;BME280;66253;50.526;14.974;2023-05-10T04:19:30;98786.61;;;10.22;54.62
77235;BME280;66253;50.526;14.974;2023-05-10T04:22:26;98782.42;;;10.29;54.64
77235;BME280;66253;50.526;14.974;2023-05-10T04:25:09;98781.55;;;10.41;54.77
77235;BME280;66253;50.526;14.974;2023-05-10T04:28:00;98776.92;;;10.79;54.03
77235;BME280;66253;50.526;14.974;2023-05-10T04:31:03;98779.27;;;11.40;53.36
77235;BME280;66253;50.526;14.974;2023-05-10T04:34:02;98776.05;;;12.18;51.77
77235;BME280;66253;50.526;14.974;2023-05-10T04:37:09;98776.74;;;13.04;50.36
77235;BME280;66253;50.526;14.974;2023-05-10T04:40:11;98776.48;;;13.89;49.01
77235;BME280;66253;50.526;14.974;2023-05-10T04:43:20;98770.15;;;14.74;47.34
77235;BME280;66253;50.526;14.974;2023-05-10T04:46:29;98767.09;;;15.60;45.55
77235;BME280;66253;50.526;14.974;2023-05-10T04:49:17;98767.70;;;16.28;43.70
77235;BME280;66253;50.526;14.974;2023-05-10T04:52:00;98765.52;;;16.83;42.39
77235;BME280;66253;50.526;14.974;2023-05-10T04:54:48;98767.30;;;17.32;41.09
77235;BME280;66253;50.526;14.974;2023-05-10T04:57:57;98769.27;;;17.72;40.38
77235;BME280;66253;50.526;14.974;2023-05-10T05:01:06;98769.98;;;18.06;39.82
77235;BME280;66253;50.526;14.974;2023-05-10T05:03:56;98769.35;;;18.45;39.02
77235;BME280;66253;50.526;14.974;2023-05-10T05:06:31;98763.88;;;18.84;38.27
77235;BME280;66253;50.526;14.974;2023-05-10T05:09:25;98761.67;;;19.28;37.57
77235;BME280;66253;50.526;14.974;2023-05-10T05:12:34;98759.61;;;19.61;36.16
77235;BME280;66253;50.526;14.974;2023-05-10T05:15:25;98759.18;;;19.82;36.06
77235;BME280;66253;50.526;14.974;2023-05-10T05:18:20;98763.73;;;20.07;35.27
77235;BME280;66253;50.526;14.974;2023-05-10T05:21:18;98756.94;;;20.45;34.73
77235;BME280;66253;50.526;14.974;2023-05-10T05:23:47;98759.69;;;20.80;34.06
77235;BME280;66253;50.526;14.974;2023-05-10T05:26:16;98756.86;;;21.13;33.27
77235;BME280;66253;50.526;14.974;2023-05-10T05:28:57;98754.39;;;21.41;32.60
77235;BME280;66253;50.526;14.974;2023-05-10T05:31:40;98752.23;;;21.61;32.24
77235;BME280;66253;50.526;14.974;2023-05-10T05:34:11;98751.89;;;21.91;31.82
77235;BME280;66253;50.526;14.974;2023-05-10T05:36:58;98746.94;;;22.40;31.49
77235;BME280;66253;50.526;14.974;2023-05-10T05:39:37;98741.10;;;22.76;30.99
77235;BME280;66253;50.526;14.974;2023-05-10T05:42:06;98738.54;;;23.24;30.28
77235;BME280;66253;50.526;14.974;2023-05-10T05:44:55;98738.53;;;23.63;29.14
77235;BME280;66253;50.526;14.974;2023-05-10T05:47:24;98732.11;;;23.95;29.20
77235;BME280;66253;50.526;14.974;2023-05-10T05:50:06;98729.27;;;24.32;28.13
77235;BME280;66253;50.526;14.974;2023-05-10T05:52:55;98726.98;;;24.58;27.91
77235;BME280;66253;50.526;14.974;2023-05-10T05:55:28;98728.70;;;24.88;27.96
77235;BME280;66253;50.526;14.974;2023-05-10T05:57:59;98732.30;;;25.20;27.70
77235;BME280;66253;50.526;14.974;2023-05-10T06:00:38;98733.66;;;25.24;27.19
77235;BME280;66253;50.526;14.974;2023-05-10T06:03:30;98735.98;;;24.51;28.05
77235;BME280;66253;50.526;14.974;2023-05-10T06:05:58;98740.94;;;23.51;29.04
77235;BME280;66253;50.526;14.974;2023-05-10T06:08:31;98742.25;;;22.46;30.72
77235;BME280;66253;50.526;14.974;2023-05-10T06:11:12;98743.08;;;21.59;32.23
77235;BME280;66253;50.526;14.974;2023-05-10T06:13:41;98742.70;;;21.07;33.21
77235;BME280;66253;50.526;14.974;2023-05-10T06:16:19;98743.60;;;20.93;33.60
77235;BME280;66253;50.526;14.974;2023-05-10T06:19:27;98744.39;;;20.65;33.77
77235;BME280;66253;50.526;14.974;2023-05-10T06:22:19;98742.67;;;20.23;34.53
77235;BME280;66253;50.526;14.974;2023-05-10T06:25:11;98748.23;;;19.76;35.16
77235;BME280;66253;50.526;14.974;2023-05-10T06:28:20;98747.16;;;19.24;36.36
77235;BME280;66253;50.526;14.974;2023-05-10T06:31:19;98748.98;;;18.83;36.88
77235;BME280;66253;50.526;14.974;2023-05-10T06:34:27;98752.39;;;18.31;37.75
77235;BME280;66253;50.526;14.974;2023-05-10T06:37:16;98751.04;;;17.94;38.35
77235;BME280;66253;50.526;14.974;2023-05-10T06:40:06;98754.02;;;17.58;38.88
77235;BME280;66253;50.526;14.974;2023-05-10T06:43:09;98753.40;;;17.21;39.95
77235;BME280;66253;50.526;14.974;2023-05-10T06:46:10;98748.42;;;16.98;40.68
77235;BME280;66253;50.526;14.974;2023-05-10T06:49:19;98746.80;;;16.80;41.30
77235;BME280;66253;50.526;14.974;2023-05-10T06:52:28;98745.98;;;16.61;41.66
77235;BME280;66253;50.526;14.974;2023-05-10T06:55:37;98742.10;;;16.53;42.21
77235;BME280;66253;50.526;14.974;2023-05-10T06:58:46;98739.45;;;16.50;42.44
77235;BME280;66253;50.526;14.974;2023-05-10T07:01:44;98738.42;;;16.43;42.47
77235;BME280;66253;50.526;14.974;2023-05-10T07:04:52;98736.97;;;16.33;42.80
77235;BME280;66253;50.526;14.974;2023-05-10T07:07:52;98737.16;;;16.20;42.91
77235;BME280;66253;50.526;14.974;2023-05-10T07:11:02;98737.69;;;16.12;43.66
77235;BME280;66253;50.526;14.974;2023-05-10T07:14:02;98741.01;;;16.24;43.60
77235;BME280;66253;50.526;14.974;2023-05-10T07:17:11;98740.83;;;16.33;43.61
77235;BME280;66253;50.526;14.974;2023-05-10T07:20:20;98744.02;;;16.43;43.55
77235;BME280;66253;50.526;14.974;2023-05-10T07:25:56;98740.53;;;16.49;43.66
77235;BME280;66253;50.526;14.974;2023-05-10T07:28:45;98741.02;;;16.53;43.78
77235;BME280;66253;50.526;14.974;2023-05-10T07:31:33;98737.74;;;16.59;43.73
77235;BME280;66253;50.526;14.974;2023-05-10T07:34:22;98733.62;;;16.66;43.89
77235;BME280;66253;50.526;14.974;2023-05-10T07:37:10;98738.98;;;16.77;43.73
77235;BME280;66253;50.526;14.974;2023-05-10T07:39:59;98737.77;;;16.81;43.45
77235;BME280;66253;50.526;14.974;2023-05-10T07:42:30;98734.52;;;16.86;43.61
77235;BME280;66253;50.526;14.974;2023-05-10T07:45:19;98731.41;;;16.86;43.52
77235;BME280;66253;50.526;14.974;2023-05-10T07:47:58;98727.68;;;16.87;43.81
77235;BME280;66253;50.526;14.974;2023-05-10T07:50:46;98728.41;;;16.95;43.65
77235;BME280;66253;50.526;14.974;2023-05-10T07:53:27;98734.07;;;16.97;43.41
77235;BME280;66253;50.526;14.974;2023-05-10T07:56:24;98729.84;;;17.07;43.45
77235;BME280;66253;50.526;14.974;2023-05-10T07:59:16;98721.52;;;17.25;42.98
77235;BME280;66253;50.526;14.974;2023-05-10T08:01:56;98722.71;;;17.42;42.96
77235;BME280;66253;50.526;14.974;2023-05-10T08:04:34;98734.12;;;17.55;42.62
77235;BME280;66253;50.526;14.974;2023-05-10T08:07:22;98729.79;;;17.62;42.02
77235;BME280;66253;50.526;14.974;2023-05-10T08:10:11;98731.23;;;17.73;42.51
77235;BME280;66253;50.526;14.974;2023-05-10T08:12:50;98727.95;;;17.86;42.21
77235;BME280;66253;50.526;14.974;2023-05-10T08:15:38;98729.55;;;17.93;41.94
77235;BME280;66253;50.526;14.974;2023-05-10T08:18:27;98737.29;;;17.97;41.76
77235;BME280;66253;50.526;14.974;2023-05-10T08:21:14;98731.91;;;17.95;41.80
77235;BME280;66253;50.526;14.974;2023-05-10T08:23:56;98731.09;;;17.99;41.83
77235;BME280;66253;50.526;14.974;2023-05-10T08:26:45;98725.20;;;18.02;41.95
77235;BME280;66253;50.526;14.974;2023-05-10T08:29:26;98730.53;;;18.12;41.82
77235;BME280;66253;50.526;14.974;2023-05-10T08:32:14;98734.08;;;18.25;41.83
77235;BME280;66253;50.526;14.974;2023-05-10T08:34:54;98731.46;;;18.36;41.89
77235;BME280;66253;50.526;14.974;2023-05-10T08:37:42;98736.75;;;18.37;41.09
77235;BME280;66253;50.526;14.974;2023-05-10T08:40:31;98725.89;;;18.33;41.33
77235;BME280;66253;50.526;14.974;2023-05-10T08:43:20;98727.08;;;18.35;41.52
77235;BME280;66253;50.526;14.974;2023-05-10T08:46:08;98731.93;;;18.37;41.98
77235;BME280;66253;50.526;14.974;2023-05-10T08:48:59;98733.44;;;18.47;41.85
77235;BME280;66253;50.526;14.974;2023-05-10T08:51:47;98721.63;;;18.56;41.59
77235;BME280;66253;50.526;14.974;2023-05-10T08:54:38;98730.16;;;18.57;41.33
77235;BME280;66253;50.526;14.974;2023-05-10T08:57:27;98722.29;;;18.49;41.56
77235;BME280;66253;50.526;14.974;2023-05-10T09:00:14;98720.14;;;18.48;41.81
77235;BME280;66253;50.526;14.974;2023-05-10T09:02:56;98720.35;;;18.55;42.01
77235;BME280;66253;50.526;14.974;2023-05-10T09:08:44;98716.98;;;18.58;42.16
77235;BME280;66253;50.526;14.974;2023-05-10T09:11:13;98716.80;;;18.60;42.09
77235;BME280;66253;50.526;14.974;2023-05-10T09:14:02;98714.48;;;18.69;41.91
77235;BME280;66253;50.526;14.974;2023-05-10T09:16:40;98715.38;;;18.76;41.47
77235;BME280;66253;50.526;14.974;2023-05-10T09:19:27;98710.79;;;18.86;41.80
77235;BME280;66253;50.526;14.974;2023-05-10T09:22:08;98715.54;;;18.99;40.90
77235;BME280;66253;50.526;14.974;2023-05-10T09:25:06;98709.59;;;19.05;40.70
77235;BME280;66253;50.526;14.974;2023-05-10T09:27:48;98715.75;;;19.14;40.28
77235;BME280;66253;50.526;14.974;2023-05-10T09:30:37;98704.95;;;19.22;39.43
77235;BME280;66253;50.526;14.974;2023-05-10T09:33:26;98703.58;;;19.31;39.50
77235;BME280;66253;50.526;14.974;2023-05-10T09:36:07;98706.34;;;19.44;38.95
77235;BME280;66253;50.526;14.974;2023-05-10T09:38:56;98708.45;;;19.52;38.92
77235;BME280;66253;50.526;14.974;2023-05-10T09:41:45;98712.90;;;19.67;38.39
77235;BME280;66253;50.526;14.974;2023-05-10T09:44:35;98714.71;;;19.80;38.15
77235;BME280;66253;50.526;14.974;2023-05-10T09:47:19;98703.21;;;19.90;37.93
77235;BME280;66253;50.526;14.974;2023-05-10T09:50:09;98712.00;;;20.03;38.14
77235;BME280;66253;50.526;14.974;2023-05-10T09:52:50;98706.81;;;20.10;38.01
77235;BME280;66253;50.526;14.974;2023-05-10T09:55:42;98699.80;;;20.14;37.54
77235;BME280;66253;50.526;14.974;2023-05-10T09:58:31;98711.04;;;20.14;38.06
77235;BME280;66253;50.526;14.974;2023-05-10T10:01:12;98705.61;;;20.23;37.75
77235;BME280;66253;50.526;14.974;2023-05-10T10:04:00;98705.39;;;20.33;37.26
77235;BME280;66253;50.526;14.974;2023-05-10T10:06:59;98699.61;;;20.37;37.53
77235;BME280;66253;50.526;14.974;2023-05-10T10:09:34;98700.11;;;20.42;37.06
77235;BME280;66253;50.526;14.974;2023-05-10T10:12:22;98697.92;;;20.45;36.64
77235;BME280;66253;50.526;14.974;2023-05-10T10:15:09;98693.46;;;20.43;37.17
77235;BME280;66253;50.526;14.974;2023-05-10T10:17:49;98685.11;;;20.51;37.70
77235;BME280;66253;50.526;14.974;2023-05-10T10:20:38;98692.20;;;20.66;37.48
77235;BME280;66253;50.526;14.974;2023-05-10T10:23:27;98693.27;;;20.78;36.50
77235;BME280;66253;50.526;14.974;2023-05-10T10:26:16;98693.21;;;20.83;36.28
77235;BME280;66253;50.526;14.974;2023-05-10T10:29:21;98700.65;;;20.92;36.40
77235;BME280;66253;50.526;14.974;2023-05-10T10:32:10;98695.98;;;20.86;35.35
77235;BME280;66253;50.526;14.974;2023-05-10T10:35:06;98694.55;;;20.77;36.07
77235;BME280;66253;50.526;14.974;2023-05-10T10:37:51;98688.94;;;20.81;36.74
77235;BME280;66253;50.526;14.974;2023-05-10T10:40:29;98692.55;;;20.89;35.93
77235;BME280;66253;50.526;14.974;2023-05-10T10:43:24;98690.47;;;20.89;35.82
77235;BME280;66253;50.526;14.974;2023-05-10T10:46:14;98688.45;;;20.87;36.54
77235;BME280;66253;50.526;14.974;2023-05-10T10:49:10;98686.13;;;20.94;36.54
77235;BME280;66253;50.526;14.974;2023-05-10T10:52:23;98689.80;;;20.99;36.34
77235;BME280;66253;50.526;14.974;2023-05-10T10:55:04;98687.08;;;20.98;36.74
77235;BME280;66253;50.526;14.974;2023-05-10T10:57:48;98690.92;;;20.92;37.23
77235;BME280;66253;50.526;14.974;2023-05-10T11:00:38;98684.79;;;20.98;37.37
77235;BME280;66253;50.526;14.974;2023-05-10T11:03:17;98689.17;;;21.05;36.93
77235;BME280;66253;50.526;14.974;2023-05-10T11:06:00;98685.05;;;20.99;36.40
77235;BME280;66253;50.526;14.974;2023-05-10T11:08:49;98691.04;;;20.95;36.98
77235;BME280;66253;50.526;14.974;2023-05-10T11:11:36;98689.33;;;20.97;37.12
77235;BME280;66253;50.526;14.974;2023-05-10T11:14:13;98686.14;;;20.96;36.46
77235;BME280;66253;50.526;14.974;2023-05-10T11:16:45;98688.61;;;20.82;35.95
77235;BME280;66253;50.526;14.974;2023-05-10T11:19:33;98685.70;;;20.60;36.30
77235;BME280;66253;50.526;14.974;2023-05-10T11:22:22;98685.77;;;20.58;37.17
77235;BME280;66253;50.526;14.974;2023-05-10T11:24:58;98685.45;;;20.66;36.87
77235;BME280;66253;50.526;14.974;2023-05-10T11:27:48;98690.18;;;20.76;36.58
77235;BME280;66253;50.526;14.974;2023-05-10T11:30:27;98683.61;;;20.80;36.81
77235;BME280;66253;50.526;14.974;2023-05-10T11:33:19;98681.20;;;20.85;36.17
77235;BME280;66253;50.526;14.974;2023-05-10T11:36:12;98681.04;;;20.86;36.48
77235;BME280;66253;50.526;14.974;2023-05-10T11:38:54;98684.38;;;20.89;36.48
77235;BME280;66253;50.526;14.974;2023-05-10T11:41:27;98683.34;;;20.86;36.52
77235;BME280;66253;50.526;14.974;2023-05-10T11:43:57;98689.66;;;20.82;36.46
77235;BME280;66253;50.526;14.974;2023-05-10T11:46:46;98680.65;;;20.75;36.96
77235;BME280;66253;50.526;14.974;2023-05-10T11:49:24;98678.98;;;20.73;37.08
77235;BME280;66253;50.526;14.974;2023-05-10T11:51:53;98682.44;;;20.67;37.19
77235;BME280;66253;50.526;14.974;2023-05-10T11:54:54;98679.75;;;20.69;37.41
77235;BME280;66253;50.526;14.974;2023-05-10T11:57:27;98683.39;;;20.73;37.61
77235;BME280;66253;50.526;14.974;2023-05-10T12:00:12;98681.36;;;20.69;37.38
77235;BME280;66253;50.526;14.974;2023-05-10T12:02:55;98677.33;;;20.64;37.53
77235;BME280;66253;50.526;14.974;2023-05-10T12:08:48;98685.34;;;20.62;37.12
77235;BME280;66253;50.526;14.974;2023-05-10T12:11:39;98685.40;;;20.54;37.13
77235;BME280;66253;50.526;14.974;2023-05-10T12:14:09;98682.80;;;20.47;37.01
77235;BME280;66253;50.526;14.974;2023-05-10T12:16:37;98680.85;;;20.42;37.06
77235;BME280;66253;50.526;14.974;2023-05-10T12:19:09;98685.08;;;20.47;37.54
77235;BME280;66253;50.526;14.974;2023-05-10T12:21:58;98689.23;;;20.57;37.25
77235;BME280;66253;50.526;14.974;2023-05-10T12:24:29;98690.67;;;20.61;37.18
77235;BME280;66253;50.526;14.974;2023-05-10T12:27:09;98694.38;;;20.70;37.44
77235;BME280;66253;50.526;14.974;2023-05-10T12:30:00;98691.33;;;20.76;36.83
77235;BME280;66253;50.526;14.974;2023-05-10T12:32:43;98694.91;;;20.82;36.99
77235;BME280;66253;50.526;14.974;2023-05-10T12:35:14;98695.84;;;20.86;36.65
77235;BME280;66253;50.526;14.974;2023-05-10T12:38:26;98697.56;;;20.91;36.47
77235;BME280;66253;50.526;14.974;2023-05-10T12:41:16;98698.48;;;20.96;36.18
77235;BME280;66253;50.526;14.974;2023-05-10T12:44:04;98698.76;;;20.98;36.59
77235;BME280;66253;50.526;14.974;2023-05-10T12:46:45;98697.77;;;21.05;37.41
77235;BME280;66253;50.526;14.974;2023-05-10T12:49:33;98699.21;;;21.16;37.31
77235;BME280;66253;50.526;14.974;2023-05-10T12:52:13;98693.93;;;21.23;36.81
77235;BME280;66253;50.526;14.974;2023-05-10T12:55:02;98702.29;;;21.26;36.51
77235;BME280;66253;50.526;14.974;2023-05-10T12:57:42;98699.62;;;21.25;36.28
77235;BME280;66253;50.526;14.974;2023-05-10T13:00:17;98698.02;;;21.25;36.28
77235;BME280;66253;50.526;14.974;2023-05-10T13:02:48;98702.69;;;21.22;35.83
77235;BME280;66253;50.526;14.974;2023-05-10T13:05:29;98703.36;;;21.13;35.76
77235;BME280;66253;50.526;14.974;2023-05-10T13:08:07;98705.77;;;21.05;36.02
77235;BME280;66253;50.526;14.974;2023-05-10T13:13:51;98708.83;;;20.95;36.58
77235;BME280;66253;50.526;14.974;2023-05-10T13:16:39;98703.62;;;20.84;36.58
77235;BME280;66253;50.526;14.974;2023-05-10T13:19:28;98703.94;;;20.80;36.86
77235;BME280;66253;50.526;14.974;2023-05-10T13:22:16;98708.00;;;20.76;37.32
77235;BME280;66253;50.526;14.974;2023-05-10T13:25:04;98705.65;;;20.77;37.36
77235;BME280;66253;50.526;14.974;2023-05-10T13:27:32;98709.93;;;20.77;37.62
77235;BME280;66253;50.526;14.974;2023-05-10T13:30:01;98708.52;;;20.75;37.48
77235;BME280;66253;50.526;14.974;2023-05-10T13:32:32;98707.17;;;20.69;37.63
77235;BME280;66253;50.526;14.974;2023-05-10T13:35:05;98709.38;;;20.66;37.36
77235;BME280;66253;50.526;14.974;2023-05-10T13:37:54;98703.47;;;20.63;37.37
77235;BME280;66253;50.526;14.974;2023-05-10T13:40:25;98711.28;;;20.63;37.54
77235;BME280;66253;50.526;14.974;2023-05-10T13:42:57;98707.23;;;20.60;37.66
77235;BME280;66253;50.526;14.974;2023-05-10T13:45:36;98710.02;;;20.59;37.83
77235;BME280;66253;50.526;14.974;2023-05-10T13:48:24;98709.61;;;20.54;37.38
77235;BME280;66253;50.526;14.974;2023-05-10T13:51:00;98707.46;;;20.55;38.06
77235;BME280;66253;50.526;14.974;2023-05-10T13:53:41;98703.49;;;20.58;37.83
77235;BME280;66253;50.526;14.974;2023-05-10T13:56:13;98700.98;;;20.59;37.66
77235;BME280;66253;50.526;14.974;2023-05-10T13:58:44;98700.92;;;20.56;37.21
77235;BME280;66253;50.526;14.974;2023-05-10T14:01:16;98702.26;;;20.53;37.57
77235;BME280;66253;50.526;14.974;2023-05-10T14:03:44;98700.92;;;20.53;37.84
77235;BME280;66253;50.526;14.974;2023-05-10T14:06:16;98696.34;;;20.55;37.74
77235;BME280;66253;50.526;14.974;2023-05-10T14:09:03;98698.41;;;20.54;37.68
77235;BME280;66253;50.526;14.974;2023-05-10T14:11:33;98701.45;;;20.49;38.01
77235;BME280;66253;50.526;14.974;2023-05-10T14:14:12;98699.81;;;20.47;38.27
77235;BME280;66253;50.526;14.974;2023-05-10T14:16:43;98700.42;;;20.46;38.41
77235;BME280;66253;50.526;14.974;2023-05-10T14:19:32;98699.48;;;20.45;38.20
77235;BME280;66253;50.526;14.974;2023-05-10T14:22:10;98692.02;;;20.44;38.32
77235;BME280;66253;50.526;14.974;2023-05-10T14:24:50;98696.27;;;20.44;38.44
77235;BME280;66253;50.526;14.974;2023-05-10T14:27:21;98694.81;;;20.48;38.49
77235;BME280;66253;50.526;14.974;2023-05-10T14:30:11;98691.36;;;20.47;38.25
77235;BME280;66253;50.526;14.974;2023-05-10T14:32:40;98689.80;;;20.47;38.67
77235;BME280;66253;50.526;14.974;2023-05-10T14:35:29;98691.14;;;20.47;38.53
77235;BME280;66253;50.526;14.974;2023-05-10T14:38:10;98692.02;;;20.41;37.93
77235;BME280;66253;50.526;14.974;2023-05-10T14:40:59;98689.91;;;20.35;38.36
77235;BME280;66253;50.526;14.974;2023-05-10T14:43:27;98693.01;;;20.34;38.52
77235;BME280;66253;50.526;14.974;2023-05-10T14:46:15;98696.48;;;20.35;38.39
77235;BME280;66253;50.526;14.974;2023-05-10T14:48:53;98694.05;;;20.34;38.38
77235;BME280;66253;50.526;14.974;2023-05-10T14:51:31;98693.42;;;20.30;38.08
77235;BME280;66253;50.526;14.974;2023-05-10T14:54:03;98691.10;;;20.26;38.32
77235;BME280;66253;50.526;14.974;2023-05-10T14:56:31;98687.33;;;20.25;38.55
77235;BME280;66253;50.526;14.974;2023-05-10T14:59:19;98688.86;;;20.25;38.71
77235;BME280;66253;50.526;14.974;2023-05-10T15:01:52;98691.94;;;20.23;38.63
77235;BME280;66253;50.526;14.974;2023-05-10T15:04:26;98694.42;;;20.21;39.02
77235;BME280;66253;50.526;14.974;2023-05-10T15:06:55;98692.30;;;20.24;39.27
77235;BME280;66253;50.526;14.974;2023-05-10T15:09:31;98698.46;;;20.31;39.06
77235;BME280;66253;50.526;14.974;2023-05-10T15:12:05;98700.38;;;20.31;38.40
77235;BME280;66253;50.526;14.974;2023-05-10T15:14:36;98699.96;;;20.30;38.51
77235;BME280;66253;50.526;14.974;2023-05-10T15:17:20;98700.83;;;20.27;38.35
77235;BME280;66253;50.526;14.974;2023-05-10T15:20:09;98706.31;;;20.21;38.45